createdAt,value
2022-12-15T00:00:34.279Z,33.43
2022-12-15T00:03:23.939Z,25.30
2022-12-15T00:06:09.928Z,28.10
2022-12-15T00:08:56.074Z,22.33
2022-12-15T00:11:43.395Z,26.17
2022-12-15T00:14:29.223Z,31.87
2022-12-15T00:17:15.351Z,30.80
2022-12-15T00:20:01.251Z,29.13
2022-12-15T00:22:47.407Z,32.33
2022-12-15T00:25:33.347Z,25.63
2022-12-15T00:28:20.548Z,35.17
2022-12-15T00:31:07.172Z,36.20
2022-12-15T00:33:52.988Z,31.40
2022-12-15T00:36:38.992Z,30.77
2022-12-15T00:39:07.229Z,29.23
2022-12-15T00:41:35.486Z,26.43
2022-12-15T00:44:05.354Z,26.05
2022-12-15T00:46:51.438Z,33.40
2022-12-15T00:49:37.278Z,30.33
2022-12-15T00:52:23.237Z,24.70
2022-12-15T00:55:09.302Z,36.50
2022-12-15T00:57:55.530Z,32.80
2022-12-15T01:00:42.781Z,30.10
2022-12-15T01:03:30.226Z,38.45
2022-12-15T01:06:16.806Z,30.17
2022-12-15T01:09:02.770Z,30.27
2022-12-15T01:11:48.808Z,29.42
2022-12-15T01:14:34.820Z,27.75
2022-12-15T01:17:22.363Z,35.78
2022-12-15T01:20:08.224Z,29.88
2022-12-15T01:22:37.879Z,24.20
2022-12-15T01:25:06.572Z,28.07
2022-12-15T01:27:34.784Z,25.37
2022-12-15T01:30:03.089Z,40.92
2022-12-15T01:32:32.863Z,32.60
2022-12-15T01:35:01.131Z,35.15
2022-12-15T01:37:29.439Z,29.20
2022-12-15T01:40:15.211Z,30.27
2022-12-15T01:42:43.693Z,33.97
2022-12-15T01:45:39.852Z,33.40
2022-12-15T01:48:11.220Z,27.00
2022-12-15T01:50:42.847Z,30.00
2022-12-15T01:53:11.208Z,29.20
2022-12-15T01:55:41.970Z,36.63
2022-12-15T01:58:11.801Z,26.40
2022-12-15T02:00:40.128Z,20.88
2022-12-15T02:03:09.841Z,28.55
2022-12-15T02:05:38.622Z,30.87
2022-12-15T02:08:07.099Z,27.77
2022-12-15T02:10:40.638Z,23.58
2022-12-15T02:13:13.397Z,25.77
2022-12-15T02:15:44.979Z,23.77
2022-12-15T02:18:17.810Z,28.00
2022-12-15T02:20:49.066Z,21.10
2022-12-15T02:23:35.195Z,20.95
2022-12-15T02:26:19.570Z,27.73
2022-12-15T02:28:54.387Z,32.30
2022-12-15T02:31:49.850Z,31.53
2022-12-15T02:34:23.281Z,28.15
2022-12-15T02:36:52.972Z,24.15
2022-12-15T02:39:21.153Z,25.73
2022-12-15T02:41:51.515Z,25.02
2022-12-15T02:44:22.587Z,18.85
2022-12-15T02:47:04.976Z,24.58
2022-12-15T02:49:36.391Z,28.35
2022-12-15T02:52:12.278Z,32.13
2022-12-15T02:54:47.958Z,25.67
2022-12-15T02:57:20.087Z,23.98
2022-12-15T02:59:55.475Z,24.98
2022-12-15T03:02:26.752Z,32.50
2022-12-15T03:04:55.199Z,29.70
2022-12-15T03:07:24.926Z,26.40
2022-12-15T03:09:53.811Z,32.10
2022-12-15T03:12:22.004Z,30.73
2022-12-15T03:14:50.247Z,26.65
2022-12-15T03:17:18.481Z,32.00
2022-12-15T03:19:49.720Z,33.80
2022-12-15T03:22:18.370Z,30.75
2022-12-15T03:24:46.579Z,29.13
2022-12-15T03:27:14.831Z,26.70
2022-12-15T03:29:43.038Z,29.33
2022-12-15T03:32:11.472Z,27.80
2022-12-15T03:34:39.707Z,35.03
2022-12-15T03:37:09.606Z,28.33
2022-12-15T03:39:37.873Z,26.80
2022-12-15T03:42:06.176Z,24.92
2022-12-15T03:44:34.580Z,26.42
2022-12-15T03:47:03.808Z,24.85
2022-12-15T03:49:32.178Z,24.67
2022-12-15T03:52:00.395Z,24.67
2022-12-15T03:54:30.209Z,23.17
2022-12-15T03:56:59.009Z,17.88
2022-12-15T03:59:27.168Z,23.20
2022-12-15T04:01:55.552Z,24.02
2022-12-15T04:04:23.785Z,20.65
2022-12-15T04:06:51.971Z,27.50
2022-12-15T04:09:20.218Z,25.90
2022-12-15T04:11:49.808Z,22.90
2022-12-15T04:14:17.982Z,23.02
2022-12-15T04:16:46.203Z,26.25
2022-12-15T04:19:31.995Z,20.20
2022-12-15T04:22:02.497Z,22.20
2022-12-15T04:24:48.500Z,26.10
2022-12-15T04:27:36.244Z,22.30
2022-12-15T04:30:22.942Z,22.95
2022-12-15T04:33:08.810Z,25.00
2022-12-15T04:35:54.690Z,21.08
2022-12-15T04:38:49.879Z,20.27
2022-12-15T04:41:37.050Z,15.48
2022-12-15T04:44:24.815Z,29.00
2022-12-15T04:47:10.669Z,24.42
2022-12-15T04:49:56.820Z,22.27
2022-12-15T04:52:42.895Z,15.65
2022-12-15T04:55:28.975Z,24.95
2022-12-15T04:58:15.085Z,26.40
2022-12-15T05:01:02.464Z,26.08
2022-12-15T05:03:48.271Z,19.13
2022-12-15T05:06:34.486Z,18.65
2022-12-15T05:09:20.276Z,18.55
2022-12-15T05:12:06.162Z,18.10
2022-12-15T05:14:52.032Z,15.13
2022-12-15T05:17:41.584Z,25.00
2022-12-15T05:20:28.148Z,31.83
2022-12-15T05:23:14.549Z,17.83
2022-12-15T05:26:00.377Z,17.92
2022-12-15T05:28:46.325Z,29.15
2022-12-15T05:31:32.879Z,18.10
2022-12-15T05:34:05.506Z,17.75
2022-12-15T05:36:34.375Z,17.90
2022-12-15T05:39:02.604Z,18.15
2022-12-15T05:41:30.808Z,14.93
2022-12-15T05:43:59.004Z,20.92
2022-12-15T05:46:27.219Z,19.80
2022-12-15T05:48:55.513Z,16.05
2022-12-15T05:51:25.114Z,15.98
2022-12-15T05:53:53.385Z,19.45
2022-12-15T05:56:21.563Z,14.32
2022-12-15T05:58:49.774Z,15.15
2022-12-15T06:01:18.866Z,14.23
2022-12-15T06:03:47.170Z,17.63
2022-12-15T06:06:15.616Z,13.85
2022-12-15T06:08:45.275Z,12.85
2022-12-15T06:11:14.071Z,13.38
2022-12-15T06:13:42.401Z,12.52
2022-12-15T06:16:12.601Z,14.00
2022-12-15T06:18:41.860Z,14.13
2022-12-15T06:21:10.979Z,14.35
2022-12-15T06:23:39.567Z,15.70
2022-12-15T06:26:13.051Z,17.08
2022-12-15T06:28:41.644Z,14.30
2022-12-15T06:31:10.784Z,12.48
2022-12-15T06:33:39.498Z,10.65
2022-12-15T06:36:09.164Z,11.45
2022-12-15T06:38:37.939Z,13.75
2022-12-15T06:41:07.255Z,14.82
2022-12-15T06:43:36.813Z,13.40
2022-12-15T06:46:05.021Z,14.20
2022-12-15T06:48:33.254Z,10.40
2022-12-15T06:51:04.961Z,11.38
2022-12-15T06:53:33.458Z,14.15
2022-12-15T06:56:02.642Z,13.55
2022-12-15T06:58:31.005Z,15.77
2022-12-15T07:01:01.803Z,14.60
2022-12-15T07:03:30.819Z,15.57
2022-12-15T07:06:03.495Z,13.02
2022-12-15T07:08:37.931Z,12.35
2022-12-15T07:11:09.881Z,13.75
2022-12-15T07:13:38.116Z,14.75
2022-12-15T07:16:08.580Z,14.70
2022-12-15T07:18:36.775Z,14.10
2022-12-15T07:21:06.023Z,13.77
2022-12-15T07:23:53.351Z,17.55
2022-12-15T07:26:26.336Z,11.23
2022-12-15T07:28:56.178Z,12.05
2022-12-15T07:31:26.307Z,12.70
2022-12-15T07:33:55.098Z,20.35
2022-12-15T07:36:23.498Z,10.27
2022-12-15T07:38:52.259Z,9.65
2022-12-15T07:41:21.178Z,9.85
2022-12-15T07:43:49.568Z,8.70
2022-12-15T07:46:18.005Z,9.25
2022-12-15T07:48:50.317Z,9.27
2022-12-15T07:51:20.880Z,9.00
2022-12-15T07:53:50.554Z,11.55
2022-12-15T07:56:19.426Z,12.70
2022-12-15T07:58:47.704Z,10.60
2022-12-15T08:01:16.252Z,13.48
2022-12-15T08:03:45.031Z,9.18
2022-12-15T08:06:15.504Z,12.55
2022-12-15T08:08:45.181Z,14.82
2022-12-15T08:11:19.373Z,14.75
2022-12-15T08:14:05.028Z,16.35
2022-12-15T08:16:36.589Z,13.00
2022-12-15T08:19:06.314Z,9.85
2022-12-15T08:21:36.288Z,13.38
2022-12-15T08:24:04.616Z,12.93
2022-12-15T08:26:33.224Z,15.70
2022-12-15T08:29:40.347Z,10.20
2022-12-15T08:31:52.832Z,10.15
2022-12-15T08:34:21.071Z,8.70
2022-12-15T08:36:50.875Z,7.00
2022-12-15T08:39:19.390Z,11.38
2022-12-15T08:41:47.872Z,11.35
2022-12-15T08:44:16.907Z,11.38
2022-12-15T08:46:46.579Z,9.80
2022-12-15T08:49:19.777Z,10.43
2022-12-15T08:51:52.247Z,12.50
2022-12-15T08:54:21.491Z,16.70
2022-12-15T08:56:49.931Z,15.35
2022-12-15T08:59:19.007Z,15.52
2022-12-15T09:01:47.361Z,11.07
2022-12-15T09:04:16.206Z,16.88
2022-12-15T09:06:44.488Z,14.20
2022-12-15T09:09:20.160Z,16.90
2022-12-15T09:11:48.534Z,13.10
2022-12-15T09:14:16.947Z,15.13
2022-12-15T09:16:45.387Z,14.43
2022-12-15T09:19:13.587Z,11.50
2022-12-15T09:21:44.984Z,11.05
2022-12-15T09:24:22.117Z,12.80
2022-12-15T09:26:56.006Z,13.77
2022-12-15T09:29:24.238Z,13.85
2022-12-15T09:31:52.497Z,13.48
2022-12-15T09:34:20.733Z,14.93
2022-12-15T09:36:48.988Z,13.65
2022-12-15T09:39:17.171Z,12.93
2022-12-15T09:41:50.380Z,13.20
2022-12-15T09:44:20.919Z,11.63
2022-12-15T09:47:13.406Z,15.88
2022-12-15T09:49:47.861Z,15.13
2022-12-15T09:52:17.594Z,16.55
2022-12-15T09:54:50.881Z,17.75
2022-12-15T09:57:24.933Z,15.93
2022-12-15T10:00:05.248Z,14.15
2022-12-15T10:02:51.603Z,12.55
2022-12-15T10:05:50.115Z,19.10
2022-12-15T10:08:17.416Z,14.15
2022-12-15T10:10:49.092Z,20.27
2022-12-15T10:13:20.526Z,13.15
2022-12-15T10:15:52.236Z,17.02
2022-12-15T10:18:23.315Z,12.55
2022-12-15T10:20:54.646Z,10.98
2022-12-15T10:23:23.224Z,12.02
2022-12-15T10:25:52.363Z,12.48
2022-12-15T10:28:28.004Z,14.75
2022-12-15T10:31:00.146Z,14.77
2022-12-15T10:33:31.290Z,15.05
2022-12-15T10:35:59.756Z,13.85
2022-12-15T10:38:30.310Z,11.88
2022-12-15T10:41:00.861Z,15.43
2022-12-15T10:43:31.535Z,11.27
2022-12-15T10:46:06.020Z,13.30
2022-12-15T10:48:34.349Z,13.73
2022-12-15T10:51:20.546Z,16.67
2022-12-15T10:53:51.002Z,6.40
2022-12-15T10:56:30.666Z,19.43
2022-12-15T10:59:02.023Z,13.90
2022-12-15T11:01:32.507Z,11.70
2022-12-15T11:04:01.048Z,12.77
2022-12-15T11:06:30.968Z,9.77
2022-12-15T11:09:09.073Z,12.73
2022-12-15T11:11:55.967Z,9.10
2022-12-15T11:14:25.440Z,7.07
2022-12-15T11:16:57.334Z,8.40
2022-12-15T11:19:32.027Z,7.70
2022-12-15T11:22:03.041Z,8.00
2022-12-15T11:24:35.710Z,12.73
2022-12-15T11:27:06.309Z,5.17
2022-12-15T11:29:38.928Z,7.97
2022-12-15T11:32:08.609Z,7.67
2022-12-15T11:34:38.466Z,5.60
2022-12-15T11:37:30.801Z,12.10
2022-12-15T11:40:15.284Z,10.00
2022-12-15T11:42:50.904Z,7.77
2022-12-15T11:45:21.027Z,8.47
2022-12-15T11:47:51.824Z,13.03
2022-12-15T11:50:28.079Z,13.67
2022-12-15T11:53:02.751Z,7.60
2022-12-15T11:55:41.020Z,15.63
2022-12-15T11:58:22.047Z,9.73
2022-12-15T12:00:53.676Z,7.83
2022-12-15T12:03:28.224Z,11.90
2022-12-15T12:06:01.735Z,8.33
2022-12-15T12:08:37.605Z,10.93
2022-12-15T12:11:10.376Z,9.03
2022-12-15T12:13:44.292Z,8.60
2022-12-15T12:16:16.623Z,6.07
2022-12-15T12:18:50.626Z,6.00
2022-12-15T12:21:22.960Z,10.60
2022-12-15T12:23:53.640Z,6.90
2022-12-15T12:26:24.332Z,11.03
2022-12-15T12:28:58.046Z,8.33
2022-12-15T12:31:30.726Z,8.63
2022-12-15T12:34:05.133Z,10.20
2022-12-15T12:36:33.344Z,8.30
2022-12-15T12:39:01.745Z,8.63
2022-12-15T12:41:35.635Z,12.63
2022-12-15T12:44:10.217Z,9.23
2022-12-15T12:46:42.093Z,3.77
2022-12-15T12:49:14.551Z,7.87
2022-12-15T12:51:43.656Z,2.00
2022-12-15T12:54:32.598Z,3.50
2022-12-15T12:57:01.006Z,3.67
2022-12-15T12:59:38.318Z,10.93
2022-12-15T13:02:25.504Z,13.43
2022-12-15T13:05:04.399Z,15.23
2022-12-15T13:07:34.700Z,7.47
2022-12-15T13:10:04.200Z,8.97
2022-12-15T13:12:53.297Z,11.40
2022-12-15T13:15:32.979Z,6.20
2022-12-15T13:18:02.660Z,3.00
2022-12-15T13:20:33.072Z,13.03
2022-12-15T13:23:31.847Z,8.93
2022-12-15T13:26:13.678Z,14.30
2022-12-15T13:28:45.598Z,5.97
2022-12-15T13:31:29.075Z,6.80
2022-12-15T13:33:58.716Z,15.60
2022-12-15T13:36:55.182Z,16.00
2022-12-15T13:39:34.481Z,17.17
2022-12-15T13:45:39.946Z,12.53
2022-12-15T13:48:14.431Z,12.23
2022-12-15T13:50:46.140Z,6.37
2022-12-15T13:53:22.749Z,11.30
2022-12-15T13:56:07.362Z,9.37
2022-12-15T13:58:40.177Z,16.37
2022-12-15T14:01:19.376Z,14.10
2022-12-15T14:03:58.080Z,14.20
2022-12-15T14:06:29.004Z,14.77
2022-12-15T14:08:58.640Z,16.00
2022-12-15T14:11:51.935Z,18.70
2022-12-15T14:14:20.527Z,16.57
2022-12-15T14:16:53.296Z,11.90
2022-12-15T14:19:21.667Z,13.00
2022-12-15T14:21:50.993Z,20.10
2022-12-15T14:24:38.581Z,13.40
2022-12-15T14:27:08.149Z,17.67
2022-12-15T14:29:36.484Z,15.10
2022-12-15T14:32:05.308Z,15.93
2022-12-15T14:34:34.979Z,13.00
2022-12-15T14:37:05.326Z,15.13
2022-12-15T14:39:38.585Z,22.90
2022-12-15T14:42:07.496Z,19.27
2022-12-15T14:44:39.113Z,24.43
2022-12-15T14:47:08.843Z,21.13
2022-12-15T14:49:41.513Z,20.70
2022-12-15T14:52:17.776Z,26.60
2022-12-15T14:54:53.367Z,32.80
2022-12-15T14:57:26.872Z,27.63
2022-12-15T14:59:55.774Z,26.17
2022-12-15T15:02:26.889Z,25.80
2022-12-15T15:03:16.428Z,9.17
2022-12-15T15:05:03.042Z,25.07
2022-12-15T15:07:32.105Z,23.17
2022-12-15T15:10:02.852Z,19.30
2022-12-15T15:12:42.433Z,20.27
2022-12-15T15:15:16.289Z,26.00
2022-12-15T15:17:46.231Z,28.37
2022-12-15T15:20:19.696Z,29.87
2022-12-15T15:22:48.523Z,22.00
2022-12-15T15:25:31.645Z,25.37
2022-12-15T15:28:13.596Z,29.23
2022-12-15T15:30:43.504Z,27.50
2022-12-15T15:33:13.626Z,32.33
2022-12-15T15:35:42.288Z,33.33
2022-12-15T15:38:17.839Z,28.07
2022-12-15T15:40:51.647Z,27.13
2022-12-15T15:43:20.333Z,25.70
2022-12-15T15:45:49.042Z,30.03
2022-12-15T15:48:20.877Z,26.23
2022-12-15T15:50:49.087Z,28.10
2022-12-15T15:53:20.624Z,27.10
2022-12-15T15:55:51.839Z,24.87
2022-12-15T15:58:20.032Z,21.00
2022-12-15T16:00:48.657Z,26.87
2022-12-15T16:03:17.099Z,26.60
2022-12-15T16:05:45.402Z,24.93
2022-12-15T16:08:15.655Z,23.93
2022-12-15T16:10:45.720Z,32.70
2022-12-15T16:13:16.735Z,31.00
2022-12-15T16:15:45.103Z,32.53
2022-12-15T16:18:13.391Z,34.63
2022-12-15T16:20:42.339Z,32.07
2022-12-15T16:23:13.799Z,33.80
2022-12-15T16:25:50.375Z,30.30
2022-12-15T16:28:21.475Z,27.43
2022-12-15T16:30:50.387Z,29.80
2022-12-15T16:33:19.022Z,23.67
2022-12-15T16:35:48.474Z,21.90
2022-12-15T16:38:18.607Z,27.57
2022-12-15T16:40:46.874Z,26.43
2022-12-15T16:43:16.516Z,34.47
2022-12-15T16:45:47.236Z,36.00
2022-12-15T16:48:16.026Z,25.67
2022-12-15T16:50:45.347Z,25.87
2022-12-15T16:53:16.641Z,22.20
2022-12-15T16:55:45.117Z,28.70
2022-12-15T16:58:15.849Z,23.90
2022-12-15T17:00:44.635Z,17.83
2022-12-15T17:03:15.624Z,14.10
2022-12-15T17:05:45.365Z,17.20
2022-12-15T17:08:18.248Z,21.80
2022-12-15T17:10:46.632Z,19.70
2022-12-15T17:13:21.109Z,17.83
2022-12-15T17:15:49.372Z,21.23
2022-12-15T17:18:18.976Z,13.33
2022-12-15T17:20:47.626Z,17.10
2022-12-15T17:23:17.273Z,18.70
2022-12-15T17:26:21.040Z,16.70
2022-12-15T17:28:37.578Z,20.53
2022-12-15T17:31:05.950Z,15.97
2022-12-15T17:33:36.484Z,16.17
2022-12-15T17:36:06.155Z,13.40
2022-12-15T17:38:34.414Z,18.07
2022-12-15T17:41:02.895Z,13.47
2022-12-15T17:43:35.760Z,21.13
2022-12-15T17:46:04.342Z,15.23
2022-12-15T17:48:32.793Z,20.10
2022-12-15T17:51:02.378Z,19.93
2022-12-15T17:53:31.898Z,19.80
2022-12-15T17:56:00.287Z,21.47
2022-12-15T17:58:28.760Z,20.40
2022-12-15T18:00:57.830Z,17.53
2022-12-15T18:03:26.305Z,20.73
2022-12-15T18:05:54.715Z,17.97
2022-12-15T18:08:25.115Z,17.90
2022-12-15T18:10:55.023Z,17.37
2022-12-15T18:13:23.746Z,15.83
2022-12-15T18:15:52.635Z,17.70
2022-12-15T18:18:22.180Z,30.50
2022-12-15T18:20:50.973Z,27.20
2022-12-15T18:23:21.626Z,27.83
2022-12-15T18:25:51.686Z,24.70
2022-12-15T18:28:24.057Z,26.13
2022-12-15T18:30:53.327Z,29.67
2022-12-15T18:33:22.040Z,26.20
2022-12-15T18:35:51.389Z,29.67
2022-12-15T18:38:20.991Z,30.80
2022-12-15T18:40:51.561Z,31.43
2022-12-15T18:43:21.961Z,37.67
2022-12-15T18:45:50.958Z,31.73
2022-12-15T18:48:20.885Z,26.53
2022-12-15T18:50:49.832Z,22.17
2022-12-15T18:53:19.768Z,18.87
2022-12-15T18:55:48.704Z,27.67
2022-12-15T18:58:25.471Z,36.90
2022-12-15T19:00:53.850Z,27.40
2022-12-15T19:03:22.796Z,39.27
2022-12-15T19:05:51.428Z,29.70
2022-12-15T19:08:20.674Z,36.93
2022-12-15T19:10:51.366Z,42.90
2022-12-15T19:13:20.402Z,34.57
2022-12-15T19:15:51.093Z,30.97
2022-12-15T19:18:37.375Z,38.00
2022-12-15T19:21:33.693Z,32.47
2022-12-15T19:24:02.045Z,24.10
2022-12-15T19:26:30.377Z,21.17
2022-12-15T19:28:58.663Z,33.93
2022-12-15T19:31:28.309Z,44.03
2022-12-15T19:33:56.899Z,39.80
2022-12-15T19:36:26.050Z,42.20
2022-12-15T19:38:57.303Z,47.23
2022-12-15T19:41:25.663Z,37.63
2022-12-15T19:43:54.313Z,39.73
2022-12-15T19:46:23.852Z,35.60
2022-12-15T19:48:53.672Z,37.70
2022-12-15T19:51:23.194Z,39.67
2022-12-15T19:53:51.992Z,28.30
2022-12-15T19:56:26.357Z,37.20
2022-12-15T19:58:54.748Z,38.60
2022-12-15T20:01:23.706Z,27.10
2022-12-15T20:03:53.376Z,35.80
2022-12-15T20:06:24.914Z,34.00
2022-12-15T20:08:54.677Z,35.40
2022-12-15T20:11:24.252Z,31.20
2022-12-15T20:13:53.040Z,35.53
2022-12-15T20:16:24.240Z,36.27
2022-12-15T20:18:53.402Z,35.50
2022-12-15T20:21:23.593Z,34.27
2022-12-15T20:23:53.890Z,43.30
2022-12-15T20:26:23.706Z,29.80
2022-12-15T20:28:52.570Z,40.37
2022-12-15T20:31:22.452Z,32.40
2022-12-15T20:33:51.432Z,30.90
2022-12-15T20:36:20.669Z,37.37
2022-12-15T20:38:50.389Z,39.57
2022-12-15T20:41:20.613Z,46.27
2022-12-15T20:43:49.245Z,36.40
2022-12-15T20:46:19.759Z,36.93
2022-12-15T20:48:48.759Z,32.77
2022-12-15T20:51:24.170Z,22.00
2022-12-15T20:53:54.614Z,31.60
2022-12-15T20:56:24.576Z,35.63
2022-12-15T20:59:11.822Z,36.70
2022-12-15T21:01:40.955Z,26.00
2022-12-15T21:04:19.607Z,26.87
2022-12-15T21:06:54.325Z,26.77
2022-12-15T21:09:24.572Z,28.47
2022-12-15T21:11:54.054Z,38.53
2022-12-15T21:14:24.043Z,37.03
2022-12-15T21:16:52.331Z,40.73
2022-12-15T21:19:26.005Z,33.93
2022-12-15T21:21:55.847Z,36.80
2022-12-15T21:24:27.038Z,29.80
2022-12-15T21:26:55.623Z,28.70
2022-12-15T21:29:24.928Z,25.40
2022-12-15T21:31:53.255Z,28.60
2022-12-15T21:34:21.539Z,29.70
2022-12-15T21:36:52.033Z,35.63
2022-12-15T21:39:23.521Z,30.50
2022-12-15T21:41:55.040Z,30.27
2022-12-15T21:44:25.549Z,25.33
2022-12-15T21:46:54.762Z,28.27
2022-12-15T21:49:22.211Z,23.97
2022-12-15T21:51:53.224Z,21.30
2022-12-15T21:54:39.454Z,19.73
2022-12-15T21:57:12.159Z,22.70
2022-12-15T21:59:50.604Z,23.73
2022-12-15T22:02:24.703Z,24.53
2022-12-15T22:04:54.783Z,18.87
2022-12-15T22:07:23.310Z,17.93
2022-12-15T22:09:51.728Z,20.17
2022-12-15T22:12:22.583Z,15.23
2022-12-15T22:14:52.020Z,18.50
2022-12-15T22:17:21.626Z,13.90
2022-12-15T22:19:49.927Z,15.47
2022-12-15T22:22:18.155Z,12.50
2022-12-15T22:24:46.600Z,19.80
2022-12-15T22:27:18.480Z,19.83
2022-12-15T22:29:48.298Z,17.83
2022-12-15T22:32:17.037Z,18.23
2022-12-15T22:34:45.256Z,15.00
2022-12-15T22:37:13.603Z,14.73
2022-12-15T22:39:41.906Z,17.57
2022-12-15T22:42:13.239Z,15.20
2022-12-15T22:44:41.511Z,21.00
2022-12-15T22:47:12.336Z,15.30
2022-12-15T22:49:41.125Z,22.73
2022-12-15T22:52:16.885Z,17.50
2022-12-15T22:54:46.228Z,24.80
2022-12-15T22:57:20.139Z,19.50
2022-12-15T22:59:51.606Z,21.23
2022-12-15T23:02:21.406Z,14.30
2022-12-15T23:04:49.709Z,19.40
2022-12-15T23:07:20.002Z,15.43
2022-12-15T23:09:48.199Z,22.07
2022-12-15T23:12:15.945Z,20.03
2022-12-15T23:15:06.827Z,13.13
2022-12-15T23:17:36.479Z,18.42
2022-12-15T23:20:04.939Z,11.70
2022-12-15T23:22:34.331Z,11.03
2022-12-15T23:25:02.550Z,10.90
2022-12-15T23:27:31.952Z,11.80
2022-12-15T23:30:00.239Z,15.40
2022-12-15T23:32:28.441Z,15.93
2022-12-15T23:34:58.039Z,17.20
2022-12-15T23:37:26.407Z,12.50
2022-12-15T23:39:54.655Z,10.40
2022-12-15T23:42:23.033Z,14.38
2022-12-15T23:44:51.752Z,13.15
2022-12-15T23:47:20.031Z,13.47
2022-12-15T23:49:48.247Z,16.65
2022-12-15T23:52:19.792Z,15.43
2022-12-15T23:54:48.002Z,11.20
2022-12-15T23:57:17.239Z,12.30
2022-12-15T23:59:45.510Z,13.07
